sensor_id;sensor_type;location;lat;lon;timestamp;pressure;altitude;pressure_sealevel;temperature;humidity
8320;BME280;4197;42.130;24.746;2023-07-31T00:02:00;98856.84;;;23.37;53.03
8320;BME280;4197;42.130;24.746;2023-07-31T00:04:28;98847.03;;;23.36;53.13
8320;BME280;4197;42.130;24.746;2023-07-31T00:06:58;98857.28;;;23.36;53.29
8320;BME280;4197;42.130;24.746;2023-07-31T00:09:26;98862.81;;;23.36;53.41
8320;BME280;4197;42.130;24.746;2023-07-31T00:11:54;98855.16;;;23.40;53.03
8320;BME280;4197;42.130;24.746;2023-07-31T00:14:23;98855.63;;;23.38;53.11
8320;BME280;4197;42.130;24.746;2023-07-31T00:16:51;98853.91;;;23.32;53.35
8320;BME280;4197;42.130;24.746;2023-07-31T00:19:19;98863.28;;;23.34;53.29
8320;BME280;4197;42.130;24.746;2023-07-31T00:21:48;98867.75;;;23.32;53.63
8320;BME280;4197;42.130;24.746;2023-07-31T00:24:17;98871.13;;;23.36;53.72
8320;BME280;4197;42.130;24.746;2023-07-31T00:26:45;98867.91;;;23.37;53.71
8320;BME280;4197;42.130;24.746;2023-07-31T00:29:14;98876.03;;;23.32;53.95
8320;BME280;4197;42.130;24.746;2023-07-31T00:31:42;98869.09;;;23.27;53.98
8320;BME280;4197;42.130;24.746;2023-07-31T00:34:10;98863.25;;;23.25;54.33
8320;BME280;4197;42.130;24.746;2023-07-31T00:36:38;98870.16;;;23.21;54.28
8320;BME280;4197;42.130;24.746;2023-07-31T00:39:07;98870.47;;;23.23;54.69
8320;BME280;4197;42.130;24.746;2023-07-31T00:41:36;98863.53;;;23.18;54.61
8320;BME280;4197;42.130;24.746;2023-07-31T00:44:04;98868.75;;;23.16;54.69
8320;BME280;4197;42.130;24.746;2023-07-31T00:46:33;98866.28;;;23.18;54.71
8320;BME280;4197;42.130;24.746;2023-07-31T00:49:01;98867.81;;;23.19;54.67
8320;BME280;4197;42.130;24.746;2023-07-31T00:51:30;98868.28;;;23.18;54.85
8320;BME280;4197;42.130;24.746;2023-07-31T00:53:58;98872.91;;;23.21;54.99
8320;BME280;4197;42.130;24.746;2023-07-31T00:56:27;98874.78;;;23.24;55.07
8320;BME280;4197;42.130;24.746;2023-07-31T00:58:57;98879.72;;;23.29;54.65
8320;BME280;4197;42.130;24.746;2023-07-31T01:01:27;98874.50;;;23.31;54.59
8320;BME280;4197;42.130;24.746;2023-07-31T01:03:55;98882.81;;;23.31;54.63
8320;BME280;4197;42.130;24.746;2023-07-31T01:06:29;98882.00;;;23.30;54.73
8320;BME280;4197;42.130;24.746;2023-07-31T01:09:01;98881.25;;;23.30;54.86
8320;BME280;4197;42.130;24.746;2023-07-31T01:11:32;98882.47;;;23.29;55.00
8320;BME280;4197;42.130;24.746;2023-07-31T01:14:03;98893.53;;;23.29;55.07
8320;BME280;4197;42.130;24.746;2023-07-31T01:16:32;98882.91;;;23.27;54.89
8320;BME280;4197;42.130;24.746;2023-07-31T01:19:01;98889.50;;;23.21;55.34
8320;BME280;4197;42.130;24.746;2023-07-31T01:21:45;98887.19;;;23.19;55.65
8320;BME280;4197;42.130;24.746;2023-07-31T01:24:23;98882.25;;;23.14;55.77
8320;BME280;4197;42.130;24.746;2023-07-31T01:27:02;98881.47;;;23.13;55.98
8320;BME280;4197;42.130;24.746;2023-07-31T01:29:37;98884.53;;;23.06;56.38
8320;BME280;4197;42.130;24.746;2023-07-31T01:32:07;98886.53;;;23.06;56.43
8320;BME280;4197;42.130;24.746;2023-07-31T01:34:37;98890.16;;;23.03;56.54
8320;BME280;4197;42.130;24.746;2023-07-31T01:37:05;98893.25;;;23.05;56.59
8320;BME280;4197;42.130;24.746;2023-07-31T01:39:34;98895.25;;;23.04;56.41
8320;BME280;4197;42.130;24.746;2023-07-31T01:42:04;98882.38;;;23.10;56.21
8320;BME280;4197;42.130;24.746;2023-07-31T01:44:32;98883.94;;;23.11;56.00
8320;BME280;4197;42.130;24.746;2023-07-31T01:47:01;98884.25;;;23.13;55.74
8320;BME280;4197;42.130;24.746;2023-07-31T01:49:29;98883.94;;;23.11;56.05
8320;BME280;4197;42.130;24.746;2023-07-31T01:51:57;98876.22;;;23.06;55.87
8320;BME280;4197;42.130;24.746;2023-07-31T01:54:26;98881.69;;;22.97;56.32
8320;BME280;4197;42.130;24.746;2023-07-31T01:56:54;98879.81;;;22.94;56.18
8320;BME280;4197;42.130;24.746;2023-07-31T01:59:24;98870.69;;;22.84;56.77
8320;BME280;4197;42.130;24.746;2023-07-31T02:01:52;98874.81;;;22.80;57.35
8320;BME280;4197;42.130;24.746;2023-07-31T02:04:21;98875.47;;;22.84;57.20
8320;BME280;4197;42.130;24.746;2023-07-31T02:06:49;98884.72;;;22.68;57.55
8320;BME280;4197;42.130;24.746;2023-07-31T02:09:20;98882.72;;;22.68;57.60
8320;BME280;4197;42.130;24.746;2023-07-31T02:11:48;98884.03;;;22.86;57.31
8320;BME280;4197;42.130;24.746;2023-07-31T02:14:16;98880.47;;;22.98;56.40
8320;BME280;4197;42.130;24.746;2023-07-31T02:16:46;98882.00;;;22.99;56.19
8320;BME280;4197;42.130;24.746;2023-07-31T02:19:14;98881.56;;;23.01;56.08
8320;BME280;4197;42.130;24.746;2023-07-31T02:21:43;98871.47;;;23.07;55.56
8320;BME280;4197;42.130;24.746;2023-07-31T02:24:11;98878.09;;;23.09;55.81
8320;BME280;4197;42.130;24.746;2023-07-31T02:26:39;98877.94;;;23.13;55.83
8320;BME280;4197;42.130;24.746;2023-07-31T02:29:09;98868.28;;;23.18;56.34
8320;BME280;4197;42.130;24.746;2023-07-31T02:31:37;98864.16;;;23.22;57.52
8320;BME280;4197;42.130;24.746;2023-07-31T02:34:07;98866.03;;;23.25;58.44
8320;BME280;4197;42.130;24.746;2023-07-31T02:36:35;98855.00;;;23.34;60.55
8320;BME280;4197;42.130;24.746;2023-07-31T02:39:04;98852.09;;;23.38;62.66
8320;BME280;4197;42.130;24.746;2023-07-31T02:41:32;98859.63;;;23.47;63.95
8320;BME280;4197;42.130;24.746;2023-07-31T02:44:01;98847.53;;;23.53;65.78
8320;BME280;4197;42.130;24.746;2023-07-31T02:46:29;98859.97;;;23.49;66.60
8320;BME280;4197;42.130;24.746;2023-07-31T02:48:57;98856.44;;;23.48;67.18
8320;BME280;4197;42.130;24.746;2023-07-31T02:51:27;98851.50;;;23.52;68.53
8320;BME280;4197;42.130;24.746;2023-07-31T02:53:55;98849.38;;;23.56;69.42
8320;BME280;4197;42.130;24.746;2023-07-31T02:56:24;98846.78;;;23.53;70.83
8320;BME280;4197;42.130;24.746;2023-07-31T02:58:52;98851.56;;;23.62;71.59
8320;BME280;4197;42.130;24.746;2023-07-31T03:01:23;98851.84;;;23.64;71.86
8320;BME280;4197;42.130;24.746;2023-07-31T03:03:52;98851.56;;;23.62;72.93
8320;BME280;4197;42.130;24.746;2023-07-31T03:06:20;98845.72;;;23.69;73.20
8320;BME280;4197;42.130;24.746;2023-07-31T03:08:50;98845.72;;;23.69;73.77
8320;BME280;4197;42.130;24.746;2023-07-31T03:11:18;98844.94;;;23.68;74.15
8320;BME280;4197;42.130;24.746;2023-07-31T03:13:46;98848.47;;;23.69;74.89
8320;BME280;4197;42.130;24.746;2023-07-31T03:16:15;98853.13;;;23.72;75.55
8320;BME280;4197;42.130;24.746;2023-07-31T03:18:43;98856.50;;;23.67;78.75
8320;BME280;4197;42.130;24.746;2023-07-31T03:21:12;98859.19;;;23.48;86.64
8320;BME280;4197;42.130;24.746;2023-07-31T03:23:40;98862.91;;;22.92;100.00
8320;BME280;4197;42.130;24.746;2023-07-31T03:26:11;98866.06;;;22.59;100.00
8320;BME280;4197;42.130;24.746;2023-07-31T03:28:40;98862.75;;;22.30;100.00
8320;BME280;4197;42.130;24.746;2023-07-31T03:31:08;98868.97;;;22.08;100.00
8320;BME280;4197;42.130;24.746;2023-07-31T03:33:38;98865.81;;;21.97;100.00
8320;BME280;4197;42.130;24.746;2023-07-31T03:36:06;98877.09;;;21.90;100.00
8320;BME280;4197;42.130;24.746;2023-07-31T03:38:35;98889.03;;;21.87;100.00
8320;BME280;4197;42.130;24.746;2023-07-31T03:41:03;98884.06;;;21.81;100.00
8320;BME280;4197;42.130;24.746;2023-07-31T03:43:34;98886.50;;;21.79;100.00
8320;BME280;4197;42.130;24.746;2023-07-31T03:46:02;98902.84;;;21.74;100.00
8320;BME280;4197;42.130;24.746;2023-07-31T03:48:31;98911.44;;;21.63;100.00
8320;BME280;4197;42.130;24.746;2023-07-31T03:50:59;98915.88;;;21.48;100.00
8320;BME280;4197;42.130;24.746;2023-07-31T03:53:27;98924.53;;;21.33;100.00
8320;BME280;4197;42.130;24.746;2023-07-31T03:55:56;98923.84;;;21.16;100.00
8320;BME280;4197;42.130;24.746;2023-07-31T03:58:24;98923.38;;;20.92;100.00
8320;BME280;4197;42.130;24.746;2023-07-31T04:00:53;98926.50;;;20.78;100.00
8320;BME280;4197;42.130;24.746;2023-07-31T04:03:23;98923.59;;;20.69;100.00
8320;BME280;4197;42.130;24.746;2023-07-31T04:05:51;98923.47;;;20.60;100.00
8320;BME280;4197;42.130;24.746;2023-07-31T04:08:19;98923.72;;;20.49;100.00
8320;BME280;4197;42.130;24.746;2023-07-31T04:10:47;98928.63;;;20.41;100.00
8320;BME280;4197;42.130;24.746;2023-07-31T04:13:16;98935.19;;;20.31;100.00
8320;BME280;4197;42.130;24.746;2023-07-31T04:15:48;98932.09;;;20.29;100.00
8320;BME280;4197;42.130;24.746;2023-07-31T04:18:19;98932.16;;;20.25;100.00
8320;BME280;4197;42.130;24.746;2023-07-31T04:20:47;98938.38;;;20.30;100.00
8320;BME280;4197;42.130;24.746;2023-07-31T04:23:15;98938.38;;;20.30;100.00
8320;BME280;4197;42.130;24.746;2023-07-31T04:25:43;98947.41;;;20.30;100.00
8320;BME280;4197;42.130;24.746;2023-07-31T04:28:12;98939.03;;;20.34;100.00
8320;BME280;4197;42.130;24.746;2023-07-31T04:30:40;98938.63;;;20.35;100.00
8320;BME280;4197;42.130;24.746;2023-07-31T04:33:08;98939.84;;;20.34;100.00
8320;BME280;4197;42.130;24.746;2023-07-31T04:35:38;98944.38;;;20.41;100.00
8320;BME280;4197;42.130;24.746;2023-07-31T04:38:06;98947.72;;;20.48;100.00
8320;BME280;4197;42.130;24.746;2023-07-31T04:40:34;98946.38;;;20.57;100.00
8320;BME280;4197;42.130;24.746;2023-07-31T04:43:03;98951.16;;;20.69;100.00
8320;BME280;4197;42.130;24.746;2023-07-31T04:45:31;98952.16;;;20.75;100.00
8320;BME280;4197;42.130;24.746;2023-07-31T04:47:59;98952.34;;;20.84;100.00
8320;BME280;4197;42.130;24.746;2023-07-31T04:50:28;98945.59;;;20.85;100.00
8320;BME280;4197;42.130;24.746;2023-07-31T04:52:58;98945.41;;;20.92;100.00
8320;BME280;4197;42.130;24.746;2023-07-31T04:55:27;98950.84;;;21.09;100.00
8320;BME280;4197;42.130;24.746;2023-07-31T04:57:55;98957.16;;;21.22;100.00
8320;BME280;4197;42.130;24.746;2023-07-31T05:00:23;98947.69;;;21.36;100.00
8320;BME280;4197;42.130;24.746;2023-07-31T05:02:52;98946.41;;;21.41;100.00
8320;BME280;4197;42.130;24.746;2023-07-31T05:05:21;98946.56;;;21.63;100.00
8320;BME280;4197;42.130;24.746;2023-07-31T05:07:49;98943.56;;;21.57;100.00
8320;BME280;4197;42.130;24.746;2023-07-31T05:10:19;98943.00;;;21.75;100.00
8320;BME280;4197;42.130;24.746;2023-07-31T05:12:47;98949.19;;;21.79;100.00
8320;BME280;4197;42.130;24.746;2023-07-31T05:15:15;98947.75;;;22.00;100.00
8320;BME280;4197;42.130;24.746;2023-07-31T05:17:43;98939.66;;;22.05;100.00
8320;BME280;4197;42.130;24.746;2023-07-31T05:20:12;98946.97;;;22.12;100.00
8320;BME280;4197;42.130;24.746;2023-07-31T05:22:41;98943.44;;;22.12;100.00
8320;BME280;4197;42.130;24.746;2023-07-31T05:25:09;98947.06;;;22.21;100.00
8320;BME280;4197;42.130;24.746;2023-07-31T05:27:39;98948.59;;;22.22;100.00
8320;BME280;4197;42.130;24.746;2023-07-31T05:30:08;98947.75;;;22.25;100.00
8320;BME280;4197;42.130;24.746;2023-07-31T05:32:36;98957.00;;;22.32;100.00
8320;BME280;4197;42.130;24.746;2023-07-31T05:35:05;98953.69;;;22.37;100.00
8320;BME280;4197;42.130;24.746;2023-07-31T05:37:34;98963.59;;;22.47;100.00
8320;BME280;4197;42.130;24.746;2023-07-31T05:40:02;98961.00;;;22.65;100.00
8320;BME280;4197;42.130;24.746;2023-07-31T05:42:31;98955.84;;;22.77;100.00
8320;BME280;4197;42.130;24.746;2023-07-31T05:45:01;98970.25;;;22.71;100.00
8320;BME280;4197;42.130;24.746;2023-07-31T05:47:29;98969.34;;;22.75;100.00
8320;BME280;4197;42.130;24.746;2023-07-31T05:49:57;98966.06;;;22.89;100.00
8320;BME280;4197;42.130;24.746;2023-07-31T05:52:26;98962.84;;;23.03;100.00
8320;BME280;4197;42.130;24.746;2023-07-31T05:54:55;98972.63;;;23.17;100.00
8320;BME280;4197;42.130;24.746;2023-07-31T05:57:23;98971.50;;;23.36;100.00
8320;BME280;4197;42.130;24.746;2023-07-31T05:59:52;98963.13;;;23.49;100.00
8320;BME280;4197;42.130;24.746;2023-07-31T06:02:22;98967.72;;;23.74;100.00
8320;BME280;4197;42.130;24.746;2023-07-31T06:04:51;98971.13;;;24.28;100.00
8320;BME280;4197;42.130;24.746;2023-07-31T06:07:20;98971.94;;;24.47;100.00
8320;BME280;4197;42.130;24.746;2023-07-31T06:09:48;98958.88;;;24.57;100.00
8320;BME280;4197;42.130;24.746;2023-07-31T06:12:17;98966.72;;;24.77;100.00
8320;BME280;4197;42.130;24.746;2023-07-31T06:14:45;98961.94;;;24.96;100.00
8320;BME280;4197;42.130;24.746;2023-07-31T06:17:13;98964.69;;;25.05;100.00
8320;BME280;4197;42.130;24.746;2023-07-31T06:19:43;98968.72;;;25.04;100.00
8320;BME280;4197;42.130;24.746;2023-07-31T06:22:12;98969.66;;;25.19;100.00
8320;BME280;4197;42.130;24.746;2023-07-31T06:24:41;98967.31;;;25.18;100.00
8320;BME280;4197;42.130;24.746;2023-07-31T06:27:10;98969.31;;;25.26;100.00
8320;BME280;4197;42.130;24.746;2023-07-31T06:29:38;98973.00;;;25.32;100.00
8320;BME280;4197;42.130;24.746;2023-07-31T06:32:07;98967.13;;;25.40;100.00
8320;BME280;4197;42.130;24.746;2023-07-31T06:34:35;98967.09;;;25.49;100.00
8320;BME280;4197;42.130;24.746;2023-07-31T06:37:05;98963.88;;;25.41;100.00
8320;BME280;4197;42.130;24.746;2023-07-31T06:39:34;98974.81;;;25.45;100.00
8320;BME280;4197;42.130;24.746;2023-07-31T06:42:02;98969.28;;;25.45;100.00
8320;BME280;4197;42.130;24.746;2023-07-31T06:44:31;98966.91;;;25.62;100.00
8320;BME280;4197;42.130;24.746;2023-07-31T06:46:59;98969.19;;;25.63;100.00
8320;BME280;4197;42.130;24.746;2023-07-31T06:49:27;98964.09;;;25.71;100.00
8320;BME280;4197;42.130;24.746;2023-07-31T06:51:55;98958.06;;;25.72;100.00
8320;BME280;4197;42.130;24.746;2023-07-31T06:54:25;98960.50;;;25.79;100.00
8320;BME280;4197;42.130;24.746;2023-07-31T06:56:53;98974.09;;;25.87;100.00
8320;BME280;4197;42.130;24.746;2023-07-31T06:59:21;98969.13;;;25.81;100.00
8320;BME280;4197;42.130;24.746;2023-07-31T07:01:49;98964.22;;;25.86;100.00
8320;BME280;4197;42.130;24.746;2023-07-31T07:04:18;98961.03;;;26.02;100.00
8320;BME280;4197;42.130;24.746;2023-07-31T07:06:46;98962.34;;;26.16;100.00
8320;BME280;4197;42.130;24.746;2023-07-31T07:09:14;98969.56;;;26.22;100.00
8320;BME280;4197;42.130;24.746;2023-07-31T07:11:44;98962.00;;;26.47;100.00
8320;BME280;4197;42.130;24.746;2023-07-31T07:14:12;98961.31;;;26.61;100.00
8320;BME280;4197;42.130;24.746;2023-07-31T07:16:40;98963.97;;;26.56;100.00
8320;BME280;4197;42.130;24.746;2023-07-31T07:19:09;98968.53;;;26.44;100.00
8320;BME280;4197;42.130;24.746;2023-07-31T07:21:37;98972.19;;;26.50;100.00
8320;BME280;4197;42.130;24.746;2023-07-31T07:24:05;98971.09;;;26.47;100.00
8320;BME280;4197;42.130;24.746;2023-07-31T07:26:34;98972.31;;;26.56;100.00
8320;BME280;4197;42.130;24.746;2023-07-31T07:29:03;98961.34;;;26.52;100.00
8320;BME280;4197;42.130;24.746;2023-07-31T07:31:34;98969.28;;;26.68;100.00
8320;BME280;4197;42.130;24.746;2023-07-31T07:34:02;98964.72;;;26.95;100.00
8320;BME280;4197;42.130;24.746;2023-07-31T07:36:31;98970.19;;;27.04;100.00
8320;BME280;4197;42.130;24.746;2023-07-31T07:39:00;98967.59;;;27.15;100.00
8320;BME280;4197;42.130;24.746;2023-07-31T07:41:29;98957.41;;;27.22;100.00
8320;BME280;4197;42.130;24.746;2023-07-31T07:44:00;98963.25;;;27.39;100.00
8320;BME280;4197;42.130;24.746;2023-07-31T07:46:30;98959.28;;;27.45;100.00
8320;BME280;4197;42.130;24.746;2023-07-31T07:48:58;98956.19;;;27.73;100.00
8320;BME280;4197;42.130;24.746;2023-07-31T07:51:27;98953.31;;;27.67;100.00
8320;BME280;4197;42.130;24.746;2023-07-31T07:53:57;98958.28;;;27.93;100.00
8320;BME280;4197;42.130;24.746;2023-07-31T07:56:26;98957.50;;;27.92;100.00
8320;BME280;4197;42.130;24.746;2023-07-31T07:58:55;98961.13;;;27.98;100.00
8320;BME280;4197;42.130;24.746;2023-07-31T08:01:23;98957.53;;;28.13;100.00
8320;BME280;4197;42.130;24.746;2023-07-31T08:03:53;98958.78;;;28.12;100.00
8320;BME280;4197;42.130;24.746;2023-07-31T08:06:21;98952.66;;;28.08;100.00
8320;BME280;4197;42.130;24.746;2023-07-31T08:08:50;98955.31;;;28.17;100.00
8320;BME280;4197;42.130;24.746;2023-07-31T08:11:18;98949.75;;;28.17;100.00
8320;BME280;4197;42.130;24.746;2023-07-31T08:13:46;98947.66;;;28.12;100.00
8320;BME280;4197;42.130;24.746;2023-07-31T08:16:14;98939.97;;;28.07;100.00
8320;BME280;4197;42.130;24.746;2023-07-31T08:18:42;98941.03;;;28.09;100.00
8320;BME280;4197;42.130;24.746;2023-07-31T08:21:12;98946.06;;;28.25;100.00
8320;BME280;4197;42.130;24.746;2023-07-31T08:23:40;98939.56;;;28.34;100.00
8320;BME280;4197;42.130;24.746;2023-07-31T08:26:15;98929.66;;;28.13;100.00
8320;BME280;4197;42.130;24.746;2023-07-31T08:28:43;98929.25;;;28.40;100.00
8320;BME280;4197;42.130;24.746;2023-07-31T08:31:11;98934.34;;;28.62;100.00
8320;BME280;4197;42.130;24.746;2023-07-31T08:33:40;98935.38;;;28.65;100.00
8320;BME280;4197;42.130;24.746;2023-07-31T08:36:08;98940.16;;;28.59;98.45
8320;BME280;4197;42.130;24.746;2023-07-31T08:38:37;98936.09;;;28.60;90.90
8320;BME280;4197;42.130;24.746;2023-07-31T08:41:06;98941.66;;;28.80;88.09
8320;BME280;4197;42.130;24.746;2023-07-31T08:43:35;98938.88;;;28.80;81.96
8320;BME280;4197;42.130;24.746;2023-07-31T08:46:04;98943.56;;;28.68;80.66
8320;BME280;4197;42.130;24.746;2023-07-31T08:48:33;98942.63;;;28.77;77.76
8320;BME280;4197;42.130;24.746;2023-07-31T08:51:03;98941.06;;;28.97;70.31
8320;BME280;4197;42.130;24.746;2023-07-31T08:53:32;98939.50;;;29.16;68.45
8320;BME280;4197;42.130;24.746;2023-07-31T08:56:02;98945.44;;;29.29;65.75
8320;BME280;4197;42.130;24.746;2023-07-31T08:58:35;98937.66;;;29.39;63.47
8320;BME280;4197;42.130;24.746;2023-07-31T09:01:04;98941.28;;;29.51;63.09
8320;BME280;4197;42.130;24.746;2023-07-31T09:03:34;98934.72;;;29.54;61.53
8320;BME280;4197;42.130;24.746;2023-07-31T09:06:04;98937.16;;;29.41;61.80
8320;BME280;4197;42.130;24.746;2023-07-31T09:08:37;98929.75;;;29.38;61.02
8320;BME280;4197;42.130;24.746;2023-07-31T09:11:28;98930.63;;;29.87;56.46
8320;BME280;4197;42.130;24.746;2023-07-31T09:13:58;98928.94;;;30.00;56.15
8320;BME280;4197;42.130;24.746;2023-07-31T09:16:29;98926.13;;;29.95;57.46
8320;BME280;4197;42.130;24.746;2023-07-31T09:18:59;98931.28;;;30.08;56.93
8320;BME280;4197;42.130;24.746;2023-07-31T09:21:29;98934.22;;;30.36;53.98
8320;BME280;4197;42.130;24.746;2023-07-31T09:23:57;98931.94;;;30.40;53.65
8320;BME280;4197;42.130;24.746;2023-07-31T09:26:31;98931.22;;;30.51;54.24
8320;BME280;4197;42.130;24.746;2023-07-31T09:29:01;98922.59;;;30.54;52.72
8320;BME280;4197;42.130;24.746;2023-07-31T09:31:37;98915.13;;;30.34;53.01
8320;BME280;4197;42.130;24.746;2023-07-31T09:34:06;98913.34;;;30.31;53.59
8320;BME280;4197;42.130;24.746;2023-07-31T09:36:40;98918.19;;;30.31;53.52
8320;BME280;4197;42.130;24.746;2023-07-31T09:39:10;98911.88;;;30.47;53.31
8320;BME280;4197;42.130;24.746;2023-07-31T09:41:42;98918.81;;;30.63;51.47
8320;BME280;4197;42.130;24.746;2023-07-31T09:44:11;98906.09;;;30.73;51.98
8320;BME280;4197;42.130;24.746;2023-07-31T09:46:39;98909.47;;;31.05;48.86
8320;BME280;4197;42.130;24.746;2023-07-31T09:49:08;98903.38;;;31.07;48.74
8320;BME280;4197;42.130;24.746;2023-07-31T09:51:37;98897.25;;;31.03;47.75
8320;BME280;4197;42.130;24.746;2023-07-31T09:54:09;98901.34;;;31.07;48.40
8320;BME280;4197;42.130;24.746;2023-07-31T09:56:44;98908.00;;;31.38;47.61
8320;BME280;4197;42.130;24.746;2023-07-31T09:59:15;98907.44;;;31.17;48.82
8320;BME280;4197;42.130;24.746;2023-07-31T10:01:50;98898.03;;;31.03;48.38
8320;BME280;4197;42.130;24.746;2023-07-31T10:04:27;98900.06;;;31.31;48.25
8320;BME280;4197;42.130;24.746;2023-07-31T10:06:56;98898.53;;;31.52;48.07
8320;BME280;4197;42.130;24.746;2023-07-31T10:09:31;98894.25;;;31.40;46.72
8320;BME280;4197;42.130;24.746;2023-07-31T10:12:02;98889.38;;;30.96;47.64
8320;BME280;4197;42.130;24.746;2023-07-31T10:14:36;98890.41;;;31.26;46.36
8320;BME280;4197;42.130;24.746;2023-07-31T10:17:06;98889.66;;;31.43;46.00
8320;BME280;4197;42.130;24.746;2023-07-31T10:19:36;98883.25;;;31.53;45.30
8320;BME280;4197;42.130;24.746;2023-07-31T10:22:05;98874.34;;;31.55;45.96
8320;BME280;4197;42.130;24.746;2023-07-31T10:24:37;98867.41;;;31.73;44.97
8320;BME280;4197;42.130;24.746;2023-07-31T10:27:07;98872.00;;;31.93;44.39
8320;BME280;4197;42.130;24.746;2023-07-31T10:29:36;98872.50;;;31.91;43.70
8320;BME280;4197;42.130;24.746;2023-07-31T10:32:06;98863.59;;;31.82;43.72
8320;BME280;4197;42.130;24.746;2023-07-31T10:34:39;98865.59;;;31.81;43.16
8320;BME280;4197;42.130;24.746;2023-07-31T10:37:24;98864.56;;;32.01;42.60
8320;BME280;4197;42.130;24.746;2023-07-31T10:39:57;98854.03;;;32.18;43.09
8320;BME280;4197;42.130;24.746;2023-07-31T10:42:34;98856.06;;;32.18;42.36
8320;BME280;4197;42.130;24.746;2023-07-31T10:45:04;98845.91;;;32.15;41.94
8320;BME280;4197;42.130;24.746;2023-07-31T10:47:37;98840.88;;;31.91;42.74
8320;BME280;4197;42.130;24.746;2023-07-31T10:50:19;98844.13;;;32.06;42.27
8320;BME280;4197;42.130;24.746;2023-07-31T10:52:49;98837.50;;;32.04;42.10
8320;BME280;4197;42.130;24.746;2023-07-31T10:55:29;98834.16;;;32.11;42.60
8320;BME280;4197;42.130;24.746;2023-07-31T10:58:05;98820.56;;;32.32;42.89
8320;BME280;4197;42.130;24.746;2023-07-31T11:00:36;98821.00;;;32.47;40.40
8320;BME280;4197;42.130;24.746;2023-07-31T11:03:07;98823.50;;;32.45;39.50
8320;BME280;4197;42.130;24.746;2023-07-31T11:05:59;98822.03;;;32.38;39.91
8320;BME280;4197;42.130;24.746;2023-07-31T11:08:31;98825.84;;;32.41;40.44
8320;BME280;4197;42.130;24.746;2023-07-31T11:11:07;98831.00;;;32.31;40.30
8320;BME280;4197;42.130;24.746;2023-07-31T11:13:42;98817.22;;;32.33;39.56
8320;BME280;4197;42.130;24.746;2023-07-31T11:16:12;98823.13;;;32.30;39.73
8320;BME280;4197;42.130;24.746;2023-07-31T11:18:41;98829.38;;;32.53;39.20
8320;BME280;4197;42.130;24.746;2023-07-31T11:21:12;98847.78;;;32.37;41.84
8320;BME280;4197;42.130;24.746;2023-07-31T11:23:41;98857.03;;;30.95;47.60
8320;BME280;4197;42.130;24.746;2023-07-31T11:26:09;98851.25;;;30.16;50.28
8320;BME280;4197;42.130;24.746;2023-07-31T11:28:38;98858.31;;;29.57;52.90
8320;BME280;4197;42.130;24.746;2023-07-31T11:31:11;98838.00;;;28.93;54.49
8320;BME280;4197;42.130;24.746;2023-07-31T11:33:39;98828.25;;;28.77;55.83
8320;BME280;4197;42.130;24.746;2023-07-31T11:36:14;98832.47;;;28.99;56.56
8320;BME280;4197;42.130;24.746;2023-07-31T11:38:43;98840.59;;;28.97;55.16
8320;BME280;4197;42.130;24.746;2023-07-31T11:41:14;98857.34;;;28.71;55.33
8320;BME280;4197;42.130;24.746;2023-07-31T11:43:43;98839.56;;;28.94;55.43
8320;BME280;4197;42.130;24.746;2023-07-31T11:46:13;98841.13;;;29.01;54.32
8320;BME280;4197;42.130;24.746;2023-07-31T11:48:42;98841.63;;;28.99;53.93
8320;BME280;4197;42.130;24.746;2023-07-31T11:51:12;98835.91;;;28.82;55.04
8320;BME280;4197;42.130;24.746;2023-07-31T11:53:43;98830.97;;;28.72;55.49
8320;BME280;4197;42.130;24.746;2023-07-31T11:56:14;98834.72;;;28.95;53.80
8320;BME280;4197;42.130;24.746;2023-07-31T11:58:45;98816.63;;;29.10;53.95
8320;BME280;4197;42.130;24.746;2023-07-31T12:01:17;98818.22;;;29.23;52.13
8320;BME280;4197;42.130;24.746;2023-07-31T12:03:48;98825.19;;;29.07;52.57
8320;BME280;4197;42.130;24.746;2023-07-31T12:06:17;98826.97;;;28.78;52.75
8320;BME280;4197;42.130;24.746;2023-07-31T12:08:48;98822.72;;;28.57;55.52
8320;BME280;4197;42.130;24.746;2023-07-31T12:11:16;98820.56;;;28.46;56.05
8320;BME280;4197;42.130;24.746;2023-07-31T12:13:44;98817.41;;;28.59;57.01
8320;BME280;4197;42.130;24.746;2023-07-31T12:16:13;98806.34;;;28.70;55.94
8320;BME280;4197;42.130;24.746;2023-07-31T12:18:42;98795.66;;;28.95;55.23
8320;BME280;4197;42.130;24.746;2023-07-31T12:21:11;98804.47;;;29.13;54.46
8320;BME280;4197;42.130;24.746;2023-07-31T12:23:40;98799.00;;;29.36;53.39
8320;BME280;4197;42.130;24.746;2023-07-31T12:26:11;98793.94;;;29.40;53.37
8320;BME280;4197;42.130;24.746;2023-07-31T12:28:41;98796.03;;;29.51;53.20
8320;BME280;4197;42.130;24.746;2023-07-31T12:31:11;98790.97;;;29.49;52.03
8320;BME280;4197;42.130;24.746;2023-07-31T12:33:42;98781.97;;;29.71;51.45
8320;BME280;4197;42.130;24.746;2023-07-31T12:36:11;98787.34;;;29.86;51.63
8320;BME280;4197;42.130;24.746;2023-07-31T12:38:40;98788.41;;;29.94;47.54
8320;BME280;4197;42.130;24.746;2023-07-31T12:41:09;98783.59;;;30.06;45.61
8320;BME280;4197;42.130;24.746;2023-07-31T12:43:38;98794.59;;;30.21;43.10
8320;BME280;4197;42.130;24.746;2023-07-31T12:46:07;98789.28;;;30.34;40.69
8320;BME280;4197;42.130;24.746;2023-07-31T12:48:37;98787.28;;;30.46;41.06
8320;BME280;4197;42.130;24.746;2023-07-31T12:51:07;98781.16;;;30.48;40.18
8320;BME280;4197;42.130;24.746;2023-07-31T12:53:35;98781.94;;;30.54;40.71
8320;BME280;4197;42.130;24.746;2023-07-31T12:56:07;98776.63;;;30.84;39.66
8320;BME280;4197;42.130;24.746;2023-07-31T12:58:35;98775.59;;;31.04;39.32
8320;BME280;4197;42.130;24.746;2023-07-31T13:01:03;98776.31;;;31.27;39.20
8320;BME280;4197;42.130;24.746;2023-07-31T13:03:33;98770.19;;;31.40;40.43
8320;BME280;4197;42.130;24.746;2023-07-31T13:06:02;98774.53;;;31.46;41.33
8320;BME280;4197;42.130;24.746;2023-07-31T13:08:32;98774.78;;;31.37;40.20
8320;BME280;4197;42.130;24.746;2023-07-31T13:11:00;98768.91;;;31.46;41.65
8320;BME280;4197;42.130;24.746;2023-07-31T13:13:29;98763.81;;;31.33;47.80
8320;BME280;4197;42.130;24.746;2023-07-31T13:15:59;98765.09;;;31.32;48.46
8320;BME280;4197;42.130;24.746;2023-07-31T13:18:27;98761.25;;;31.47;49.21
8320;BME280;4197;42.130;24.746;2023-07-31T13:20:55;98758.22;;;31.45;49.78